createdAt,value
2018-07-21T00:01:53.779Z,10.20
2018-07-21T00:04:21.276Z,10.73
2018-07-21T00:06:48.800Z,10.67
2018-07-21T00:09:16.288Z,9.33
2018-07-21T00:11:43.800Z,7.80
2018-07-21T00:14:11.312Z,8.27
2018-07-21T00:16:39.015Z,8.17
2018-07-21T00:19:06.992Z,7.70
2018-07-21T00:21:34.524Z,8.30
2018-07-21T00:24:01.943Z,9.77
2018-07-21T00:26:35.208Z,8.80
2018-07-21T00:29:02.719Z,8.27
2018-07-21T00:31:30.241Z,10.13
2018-07-21T00:33:57.761Z,9.90
2018-07-21T00:36:25.296Z,10.70
2018-07-21T00:38:52.789Z,9.93
2018-07-21T00:41:20.553Z,9.80
2018-07-21T00:43:48.182Z,10.00
2018-07-21T00:46:15.705Z,10.00
2018-07-21T00:48:43.199Z,9.47
2018-07-21T00:51:10.716Z,8.60
2018-07-21T00:53:38.215Z,7.73
2018-07-21T00:56:05.791Z,8.97
2018-07-21T00:58:33.276Z,9.10
2018-07-21T01:01:00.832Z,9.43
2018-07-21T01:03:28.320Z,9.73
2018-07-21T01:05:55.863Z,10.30
2018-07-21T01:08:23.385Z,11.07
2018-07-21T01:10:50.916Z,10.57
2018-07-21T01:13:18.438Z,11.20
2018-07-21T01:15:45.959Z,10.53
2018-07-21T01:18:13.441Z,10.03
2018-07-21T01:20:40.976Z,10.33
2018-07-21T01:23:08.457Z,8.80
2018-07-21T01:25:36.004Z,8.40
2018-07-21T01:28:03.537Z,8.53
2018-07-21T01:30:31.068Z,8.63
2018-07-21T01:32:58.622Z,8.83
2018-07-21T01:35:26.129Z,9.57
2018-07-21T01:37:53.647Z,10.17
2018-07-21T01:40:21.168Z,10.00
2018-07-21T01:42:48.660Z,10.63
2018-07-21T01:45:16.204Z,10.73
2018-07-21T01:47:43.721Z,11.73
2018-07-21T01:50:11.244Z,11.23
2018-07-21T01:52:38.720Z,10.17
2018-07-21T01:55:06.228Z,10.27
2018-07-21T01:57:33.732Z,10.60
2018-07-21T02:00:01.264Z,10.43
2018-07-21T02:02:28.782Z,10.70
2018-07-21T02:04:56.272Z,10.43
2018-07-21T02:07:23.837Z,10.80
2018-07-21T02:09:51.340Z,9.00
2018-07-21T02:12:18.849Z,10.43
2018-07-21T02:14:46.328Z,9.77
2018-07-21T02:17:13.850Z,8.10
2018-07-21T02:19:41.347Z,8.83
2018-07-21T02:22:08.869Z,9.43
2018-07-21T02:24:36.380Z,7.37
2018-07-21T02:27:03.934Z,6.97
2018-07-21T02:29:31.424Z,6.90
2018-07-21T02:31:58.963Z,7.27
2018-07-21T02:34:26.464Z,7.70
2018-07-21T02:36:53.976Z,7.67
2018-07-21T02:39:21.484Z,7.67
2018-07-21T02:41:49.001Z,7.80
2018-07-21T02:44:16.553Z,8.13
2018-07-21T02:46:44.082Z,8.90
2018-07-21T02:49:11.564Z,8.90
2018-07-21T02:51:39.082Z,9.67
2018-07-21T02:54:07.432Z,9.37
2018-07-21T02:56:34.959Z,10.27
2018-07-21T02:59:02.462Z,9.87
2018-07-21T03:01:30.005Z,10.40
2018-07-21T03:03:57.514Z,10.43
2018-07-21T03:06:25.060Z,10.47
2018-07-21T03:08:52.558Z,11.27
2018-07-21T03:11:20.076Z,12.87
2018-07-21T03:13:47.579Z,13.00
2018-07-21T03:16:15.129Z,13.73
2018-07-21T03:18:42.632Z,14.30
2018-07-21T03:21:10.148Z,14.43
2018-07-21T03:23:37.647Z,15.23
2018-07-21T03:26:05.176Z,14.13
2018-07-21T03:28:32.713Z,15.97
2018-07-21T03:31:00.266Z,16.43
2018-07-21T03:33:27.729Z,16.10
2018-07-21T03:35:55.220Z,18.53
2018-07-21T03:38:22.749Z,18.00
2018-07-21T03:40:50.241Z,18.03
2018-07-21T03:43:17.769Z,19.70
2018-07-21T03:45:45.272Z,19.57
2018-07-21T03:48:12.806Z,19.10
2018-07-21T03:50:40.305Z,20.13
2018-07-21T03:53:07.849Z,20.60
2018-07-21T03:55:35.390Z,18.07
2018-07-21T03:58:02.899Z,17.17
2018-07-21T04:00:30.400Z,18.47
2018-07-21T04:02:57.916Z,18.83
2018-07-21T04:05:25.456Z,18.00
2018-07-21T04:07:52.976Z,17.80
2018-07-21T04:10:20.533Z,17.70
2018-07-21T04:12:48.048Z,18.33
2018-07-21T04:15:15.553Z,18.23
2018-07-21T04:17:43.070Z,18.40
2018-07-21T04:20:10.840Z,17.57
2018-07-21T04:22:38.359Z,14.67
2018-07-21T04:25:05.889Z,16.13
2018-07-21T04:27:33.464Z,13.53
2018-07-21T04:30:00.988Z,12.47
2018-07-21T04:32:28.499Z,12.57
2018-07-21T04:34:56.017Z,12.10
2018-07-21T04:37:23.528Z,12.07
2018-07-21T04:39:51.028Z,12.67
2018-07-21T04:42:18.580Z,13.47
2018-07-21T04:44:46.076Z,13.20
2018-07-21T04:47:13.595Z,13.07
2018-07-21T04:49:41.088Z,13.80
2018-07-21T04:52:08.618Z,12.73
2018-07-21T04:54:36.128Z,13.67
2018-07-21T04:57:03.641Z,13.00
2018-07-21T04:59:31.159Z,14.17
2018-07-21T05:01:58.668Z,15.20
2018-07-21T05:04:26.196Z,13.77
2018-07-21T05:06:53.684Z,14.37
2018-07-21T05:09:21.226Z,15.70
2018-07-21T05:11:48.908Z,20.67
2018-07-21T05:14:16.455Z,22.70
2018-07-21T05:16:44.039Z,22.47
2018-07-21T05:19:11.599Z,22.63
2018-07-21T05:21:39.115Z,20.53
2018-07-21T05:24:06.707Z,22.57
2018-07-21T05:26:35.032Z,22.37
2018-07-21T05:29:02.604Z,20.53
2018-07-21T05:31:30.128Z,20.77
2018-07-21T05:33:57.584Z,17.00
2018-07-21T05:36:25.155Z,17.50
2018-07-21T05:38:52.685Z,18.17
2018-07-21T05:41:20.213Z,17.07
2018-07-21T05:43:47.788Z,15.80
2018-07-21T05:46:15.333Z,17.37
2018-07-21T05:48:42.873Z,18.77
2018-07-21T05:51:10.447Z,15.17
2018-07-21T05:53:38.252Z,13.23
2018-07-21T05:56:05.880Z,15.40
2018-07-21T05:58:33.422Z,15.83
2018-07-21T06:01:00.944Z,15.10
2018-07-21T06:03:28.527Z,13.97
2018-07-21T06:05:56.094Z,15.10
2018-07-21T06:08:23.663Z,13.97
2018-07-21T06:10:51.400Z,16.40
2018-07-21T06:13:19.004Z,16.03
2018-07-21T06:15:46.523Z,14.93
2018-07-21T06:18:14.064Z,13.90
2018-07-21T06:20:41.688Z,14.10
2018-07-21T06:23:09.268Z,12.77
2018-07-21T06:25:36.895Z,11.40
2018-07-21T06:28:04.501Z,14.57
2018-07-21T06:30:32.010Z,11.80
2018-07-21T06:32:59.570Z,14.33
2018-07-21T06:35:27.099Z,14.00
2018-07-21T06:37:54.560Z,14.80
2018-07-21T06:40:22.096Z,13.13
2018-07-21T06:42:49.589Z,12.17
2018-07-21T06:45:17.140Z,12.90
2018-07-21T06:47:44.657Z,13.63
2018-07-21T06:50:12.218Z,13.67
2018-07-21T06:52:39.761Z,13.00
2018-07-21T06:55:10.458Z,13.67
2018-07-21T06:57:39.218Z,14.37
2018-07-21T07:00:06.816Z,16.17
2018-07-21T07:02:34.400Z,15.50
2018-07-21T07:05:02.020Z,15.47
2018-07-21T07:07:29.544Z,15.43
2018-07-21T07:09:57.366Z,15.60
2018-07-21T07:12:25.008Z,16.37
2018-07-21T07:14:52.531Z,15.90
2018-07-21T07:17:20.024Z,15.30
2018-07-21T07:19:47.539Z,13.77
2018-07-21T07:22:15.072Z,15.30
2018-07-21T07:24:42.667Z,13.43
2018-07-21T07:27:10.184Z,14.80
2018-07-21T07:29:37.748Z,15.53
2018-07-21T07:32:05.624Z,13.97
2018-07-21T07:34:33.136Z,14.23
2018-07-21T07:37:00.632Z,13.73
2018-07-21T07:39:28.148Z,14.00
2018-07-21T07:41:55.652Z,14.40
2018-07-21T07:44:23.164Z,14.00
2018-07-21T07:46:50.643Z,14.27
2018-07-21T07:49:18.155Z,16.63
2018-07-21T07:51:45.644Z,14.37
2018-07-21T07:54:13.166Z,14.67
2018-07-21T07:56:40.576Z,14.57
2018-07-21T07:59:08.101Z,14.13
2018-07-21T08:01:35.627Z,14.13
2018-07-21T08:04:03.244Z,15.07
2018-07-21T08:06:30.960Z,15.30
2018-07-21T08:08:58.579Z,13.87
2018-07-21T08:11:26.212Z,14.27
2018-07-21T08:13:53.932Z,16.33
2018-07-21T08:16:21.472Z,14.47
2018-07-21T08:18:48.985Z,15.77
2018-07-21T08:21:16.550Z,13.97
2018-07-21T08:23:44.093Z,15.10
2018-07-21T08:26:11.668Z,14.47
2018-07-21T08:28:39.226Z,13.27
2018-07-21T08:31:06.867Z,14.10
2018-07-21T08:33:34.505Z,15.73
2018-07-21T08:36:02.118Z,14.87
2018-07-21T08:38:29.651Z,15.33
2018-07-21T08:40:57.192Z,14.47
2018-07-21T08:43:24.726Z,14.23
2018-07-21T08:45:52.400Z,14.67
2018-07-21T08:48:20.033Z,13.83
2018-07-21T08:50:47.704Z,14.70
2018-07-21T08:53:15.508Z,14.90
2018-07-21T08:55:43.389Z,15.30
2018-07-21T08:58:11.050Z,15.07
2018-07-21T09:00:38.609Z,14.50
2018-07-21T09:03:06.225Z,15.03
2018-07-21T09:05:33.813Z,14.73
2018-07-21T09:08:01.365Z,14.87
2018-07-21T09:10:28.924Z,14.77
2018-07-21T09:12:56.445Z,14.20
2018-07-21T09:15:24.000Z,14.73
2018-07-21T09:17:51.540Z,15.20
2018-07-21T09:20:19.071Z,14.53
2018-07-21T09:22:46.686Z,15.23
2018-07-21T09:25:14.237Z,14.30
2018-07-21T09:27:41.765Z,13.37
2018-07-21T09:30:09.330Z,13.00
2018-07-21T09:32:36.949Z,13.73
2018-07-21T09:35:04.624Z,13.30
2018-07-21T09:37:32.152Z,15.17
2018-07-21T09:39:59.760Z,14.50
2018-07-21T09:42:27.354Z,13.73
2018-07-21T09:44:54.904Z,13.60
2018-07-21T09:47:22.485Z,13.17
2018-07-21T09:49:50.046Z,14.70
2018-07-21T09:52:17.624Z,13.47
2018-07-21T09:54:45.229Z,13.10
2018-07-21T09:57:12.752Z,12.77
2018-07-21T09:59:40.351Z,12.70
2018-07-21T10:02:07.972Z,12.50
2018-07-21T10:04:35.484Z,13.13
2018-07-21T10:07:03.080Z,12.27
2018-07-21T10:09:30.567Z,12.50
2018-07-21T10:11:58.088Z,12.00
2018-07-21T10:14:25.656Z,12.30
2018-07-21T10:16:53.156Z,11.67
2018-07-21T10:19:20.647Z,12.17
2018-07-21T10:21:48.198Z,11.53
2018-07-21T10:24:21.348Z,12.03
2018-07-21T10:26:54.791Z,10.73
2018-07-21T10:29:22.359Z,12.07
2018-07-21T10:31:49.878Z,11.67
2018-07-21T10:34:17.373Z,11.33
2018-07-21T10:36:44.945Z,11.30
2018-07-21T10:39:13.551Z,11.80
2018-07-21T10:41:41.108Z,10.63
2018-07-21T10:44:08.633Z,11.10
2018-07-21T10:46:36.173Z,11.37
2018-07-21T10:49:04.524Z,10.93
2018-07-21T10:51:32.080Z,10.60
2018-07-21T10:53:59.727Z,11.13
2018-07-21T10:56:27.260Z,11.17
2018-07-21T10:58:54.812Z,10.73
2018-07-21T11:01:22.365Z,10.10
2018-07-21T11:03:49.867Z,10.37
2018-07-21T11:06:17.384Z,10.53
2018-07-21T11:08:44.864Z,11.70
2018-07-21T11:11:12.405Z,10.37
2018-07-21T11:13:39.895Z,10.80
2018-07-21T11:16:07.464Z,10.53
2018-07-21T11:18:34.983Z,10.97
2018-07-21T11:21:02.724Z,11.13
2018-07-21T11:23:30.247Z,13.53
2018-07-21T11:26:03.515Z,11.77
2018-07-21T11:28:31.606Z,11.93
2018-07-21T11:30:59.196Z,12.63
2018-07-21T11:33:26.756Z,11.87
2018-07-21T11:35:54.484Z,10.80
2018-07-21T11:38:21.796Z,11.97
2018-07-21T11:40:49.336Z,11.43
2018-07-21T11:43:16.848Z,11.27
2018-07-21T11:45:44.423Z,12.93
2018-07-21T11:48:12.096Z,10.77
2018-07-21T11:50:39.619Z,11.83
2018-07-21T11:53:07.149Z,11.13
2018-07-21T11:55:34.645Z,10.47
2018-07-21T11:58:02.164Z,10.80
2018-07-21T12:00:29.765Z,10.57
2018-07-21T12:02:57.321Z,11.20
2018-07-21T12:05:24.855Z,11.33
2018-07-21T12:07:52.345Z,11.70
2018-07-21T12:10:19.832Z,11.87
2018-07-21T12:12:47.344Z,11.33
2018-07-21T12:15:14.860Z,11.17
2018-07-21T12:17:42.396Z,10.67
2018-07-21T12:20:09.980Z,10.97
2018-07-21T12:22:37.500Z,11.23
2018-07-21T12:25:05.096Z,10.77
2018-07-21T12:27:32.740Z,10.67
2018-07-21T12:30:00.255Z,9.73
2018-07-21T12:32:27.727Z,9.97
2018-07-21T12:34:55.257Z,10.87
2018-07-21T12:37:22.856Z,10.10
2018-07-21T12:39:50.416Z,11.90
2018-07-21T12:42:17.972Z,10.90
2018-07-21T12:44:45.517Z,11.30
2018-07-21T12:47:13.070Z,11.60
2018-07-21T12:49:40.593Z,11.47
2018-07-21T12:52:08.263Z,11.80
2018-07-21T12:54:35.784Z,11.83
2018-07-21T12:57:03.316Z,11.30
2018-07-21T12:59:30.820Z,11.50
2018-07-21T13:01:58.382Z,12.13
2018-07-21T13:04:26.081Z,12.03
2018-07-21T13:06:53.651Z,11.83
2018-07-21T13:09:21.288Z,11.67
2018-07-21T13:11:48.860Z,12.00
2018-07-21T13:14:16.461Z,13.37
2018-07-21T13:16:44.013Z,12.77
2018-07-21T13:19:11.545Z,14.30
2018-07-21T13:21:39.134Z,12.30
2018-07-21T13:24:06.737Z,15.40
2018-07-21T13:26:34.339Z,15.77
2018-07-21T13:29:01.857Z,17.17
2018-07-21T13:31:29.435Z,19.20
2018-07-21T13:33:57.002Z,18.83
2018-07-21T13:36:24.513Z,17.23
2018-07-21T13:38:52.076Z,19.03
2018-07-21T13:41:19.623Z,19.33
2018-07-21T13:43:47.209Z,17.50
2018-07-21T13:46:14.820Z,22.43
2018-07-21T13:48:42.364Z,20.20
2018-07-21T13:51:09.907Z,24.00
2018-07-21T13:53:37.515Z,20.90
2018-07-21T13:56:05.449Z,23.97
2018-07-21T13:58:33.008Z,25.20
2018-07-21T14:01:00.525Z,26.87
2018-07-21T14:03:28.127Z,24.60
2018-07-21T14:05:56.221Z,27.23
2018-07-21T14:08:23.775Z,26.57
2018-07-21T14:10:51.343Z,25.97
2018-07-21T14:13:18.921Z,27.40
2018-07-21T14:15:46.613Z,26.93
2018-07-21T14:18:14.169Z,27.13
2018-07-21T14:20:41.701Z,26.90
2018-07-21T14:23:09.402Z,24.50
2018-07-21T14:25:36.932Z,25.37
2018-07-21T14:28:04.564Z,30.63
2018-07-21T14:30:32.117Z,31.97
2018-07-21T14:32:59.688Z,31.33
2018-07-21T14:35:27.260Z,33.63
2018-07-21T14:37:54.865Z,33.13
2018-07-21T14:40:22.432Z,30.73
2018-07-21T14:42:49.934Z,34.90
2018-07-21T14:45:17.536Z,33.37
2018-07-21T14:47:45.080Z,30.97
2018-07-21T14:50:12.648Z,29.57
2018-07-21T14:52:40.232Z,31.77
2018-07-21T14:55:07.885Z,36.30
2018-07-21T14:57:35.369Z,33.20
2018-07-21T15:00:03.900Z,27.07
2018-07-21T15:02:31.446Z,24.87
2018-07-21T15:04:59.016Z,28.63
2018-07-21T15:07:26.528Z,31.23
2018-07-21T15:09:54.144Z,31.70
2018-07-21T15:12:21.739Z,31.37
2018-07-21T15:14:49.307Z,27.97
2018-07-21T15:17:16.836Z,29.60
2018-07-21T15:19:44.372Z,29.80
2018-07-21T15:22:11.877Z,28.73
2018-07-21T15:24:39.453Z,26.57
2018-07-21T15:27:07.049Z,26.90
2018-07-21T15:29:34.582Z,27.03
2018-07-21T15:32:02.076Z,22.70
2018-07-21T15:34:29.588Z,25.63
2018-07-21T15:36:57.088Z,24.23
2018-07-21T15:39:24.604Z,26.97
2018-07-21T15:41:52.099Z,24.97
2018-07-21T15:44:19.608Z,24.97
2018-07-21T15:46:47.092Z,26.17
2018-07-21T15:49:14.633Z,25.57
2018-07-21T15:51:43.369Z,25.37
2018-07-21T15:54:10.901Z,26.40
2018-07-21T15:56:38.440Z,29.87
2018-07-21T15:59:06.195Z,25.97
2018-07-21T16:01:33.790Z,28.53
2018-07-21T16:04:01.337Z,27.67
2018-07-21T16:06:28.868Z,28.20
2018-07-21T16:08:56.620Z,26.17
2018-07-21T16:11:24.225Z,20.80
2018-07-21T16:13:51.786Z,18.30
2018-07-21T16:16:19.352Z,19.53
2018-07-21T16:18:46.939Z,18.23
2018-07-21T16:21:14.480Z,18.57
2018-07-21T16:23:42.041Z,21.17
2018-07-21T16:26:09.584Z,21.33
2018-07-21T16:28:37.120Z,19.53
2018-07-21T16:31:04.884Z,21.23
2018-07-21T16:33:32.762Z,22.03
2018-07-21T16:36:00.298Z,20.13
2018-07-21T16:38:28.008Z,21.97
2018-07-21T16:40:55.533Z,17.50
2018-07-21T16:43:23.267Z,19.83
2018-07-21T16:45:50.791Z,17.63
2018-07-21T16:48:18.340Z,18.40
2018-07-21T16:50:45.912Z,21.27
2018-07-21T16:53:13.440Z,24.23
2018-07-21T16:55:40.988Z,20.57
2018-07-21T16:58:08.504Z,13.70
2018-07-21T17:00:36.049Z,13.47
2018-07-21T17:03:03.726Z,14.20
2018-07-21T17:05:31.260Z,14.60
2018-07-21T17:07:58.834Z,10.83
2018-07-21T17:10:26.434Z,14.00
2018-07-21T17:12:53.953Z,15.30
2018-07-21T17:15:21.500Z,14.13
2018-07-21T17:17:49.035Z,12.93
2018-07-21T17:20:16.669Z,14.70
2018-07-21T17:22:44.203Z,13.90
2018-07-21T17:25:11.820Z,14.77
2018-07-21T17:27:39.377Z,10.43
2018-07-21T17:30:07.040Z,10.77
2018-07-21T17:32:34.571Z,7.60
2018-07-21T17:35:02.206Z,7.10
2018-07-21T17:37:29.963Z,6.77
2018-07-21T17:39:57.540Z,6.63
2018-07-21T17:42:25.080Z,6.63
2018-07-21T17:44:52.679Z,6.20
2018-07-21T17:47:20.182Z,6.30
2018-07-21T17:49:47.961Z,6.77
2018-07-21T17:52:15.431Z,6.87
2018-07-21T17:54:43.093Z,6.63
2018-07-21T17:57:10.684Z,7.23
2018-07-21T17:59:38.316Z,8.00
2018-07-21T18:02:05.993Z,6.70
2018-07-21T18:04:33.599Z,7.97
2018-07-21T18:07:02.072Z,8.73
2018-07-21T18:09:29.641Z,8.87
2018-07-21T18:11:57.219Z,8.90
2018-07-21T18:14:24.854Z,9.00
2018-07-21T18:16:52.446Z,8.77
2018-07-21T18:19:19.952Z,9.77
2018-07-21T18:21:47.512Z,8.47
2018-07-21T18:24:15.173Z,9.00
2018-07-21T18:26:42.843Z,8.37
2018-07-21T18:29:10.422Z,9.23
2018-07-21T18:31:38.213Z,8.70
2018-07-21T18:34:06.280Z,8.80
2018-07-21T18:36:33.852Z,8.80
2018-07-21T18:39:01.413Z,9.30
2018-07-21T18:41:28.984Z,8.80
2018-07-21T18:43:56.523Z,7.30
2018-07-21T18:46:24.108Z,8.70
2018-07-21T18:48:51.742Z,8.43
2018-07-21T18:51:19.297Z,9.40
2018-07-21T18:53:46.813Z,9.20
2018-07-21T18:56:14.376Z,9.17
2018-07-21T18:58:41.965Z,8.83
2018-07-21T19:01:09.503Z,6.80
2018-07-21T19:03:37.036Z,8.27
2018-07-21T19:06:05.854Z,7.60
2018-07-21T19:08:39.283Z,8.67
2018-07-21T19:11:06.910Z,8.50
2018-07-21T19:13:34.408Z,7.20
2018-07-21T19:16:07.456Z,8.43
2018-07-21T19:18:35.008Z,9.70
2018-07-21T19:21:08.401Z,8.73
2018-07-21T19:23:35.900Z,8.17
2018-07-21T19:26:09.253Z,8.73
2018-07-21T19:28:36.798Z,8.90
2018-07-21T19:31:04.649Z,8.47
2018-07-21T19:33:32.148Z,8.60
2018-07-21T19:35:59.668Z,7.97
2018-07-21T19:38:27.171Z,7.37
2018-07-21T19:40:54.711Z,7.00
2018-07-21T19:43:23.713Z,7.80
2018-07-21T19:45:51.794Z,8.03
2018-07-21T19:48:19.428Z,8.10
2018-07-21T19:50:47.004Z,7.73
2018-07-21T19:53:16.564Z,8.37
2018-07-21T19:55:44.149Z,7.70
2018-07-21T19:58:11.758Z,8.93
2018-07-21T20:00:39.239Z,8.30
2018-07-21T20:03:06.768Z,7.87
2018-07-21T20:05:34.301Z,6.80
2018-07-21T20:08:01.860Z,7.30
2018-07-21T20:10:29.368Z,6.57
2018-07-21T20:12:56.913Z,6.77
2018-07-21T20:15:24.427Z,6.70
2018-07-21T20:17:51.957Z,8.23
2018-07-21T20:20:19.455Z,6.17
2018-07-21T20:22:47.013Z,6.70
2018-07-21T20:25:14.536Z,7.40
2018-07-21T20:27:42.108Z,9.67
2018-07-21T20:30:09.673Z,9.50
2018-07-21T20:32:37.280Z,9.73
2018-07-21T20:35:04.788Z,8.33
2018-07-21T20:37:32.368Z,6.53
2018-07-21T20:39:59.889Z,6.40
2018-07-21T20:42:27.423Z,6.33
2018-07-21T20:44:54.927Z,6.20
2018-07-21T20:47:22.431Z,6.10
2018-07-21T20:49:49.948Z,5.87
2018-07-21T20:52:17.448Z,4.67
2018-07-21T20:54:44.981Z,6.07
2018-07-21T20:57:12.533Z,4.60
2018-07-21T20:59:40.077Z,5.17
2018-07-21T21:02:07.585Z,5.93
2018-07-21T21:04:35.133Z,5.97
2018-07-21T21:07:02.666Z,5.67
2018-07-21T21:09:30.196Z,4.43
2018-07-21T21:11:57.704Z,5.17
2018-07-21T21:14:25.258Z,5.50
2018-07-21T21:16:52.751Z,5.57
2018-07-21T21:19:20.272Z,5.93
2018-07-21T21:21:47.955Z,5.27
2018-07-21T21:24:15.488Z,5.70
2018-07-21T21:26:43.016Z,5.90
2018-07-21T21:29:10.525Z,7.53
2018-07-21T21:31:38.044Z,5.53
2018-07-21T21:34:05.605Z,5.40
2018-07-21T21:36:33.132Z,4.57
2018-07-21T21:39:00.684Z,4.43
2018-07-21T21:41:28.208Z,4.77
2018-07-21T21:43:55.734Z,4.70
2018-07-21T21:46:23.273Z,4.87
2018-07-21T21:48:50.816Z,5.37
2018-07-21T21:51:18.325Z,4.80
2018-07-21T21:53:45.860Z,4.50
2018-07-21T21:56:13.373Z,4.90
2018-07-21T21:58:40.918Z,5.43
2018-07-21T22:01:09.821Z,4.60
2018-07-21T22:03:37.384Z,5.80
2018-07-21T22:06:05.101Z,5.73
2018-07-21T22:08:33.135Z,4.17
2018-07-21T22:11:00.974Z,5.23
2018-07-21T22:13:28.952Z,5.50
2018-07-21T22:15:56.914Z,4.93
2018-07-21T22:18:24.528Z,5.50
2018-07-21T22:20:52.057Z,4.63
2018-07-21T22:23:19.579Z,5.03
2018-07-21T22:25:47.003Z,5.50
2018-07-21T22:28:14.537Z,4.67
2018-07-21T22:30:42.089Z,3.90
2018-07-21T22:33:09.608Z,5.63
2018-07-21T22:35:37.132Z,4.87
2018-07-21T22:38:04.691Z,5.83
2018-07-21T22:40:32.229Z,4.43
2018-07-21T22:42:59.740Z,4.17
2018-07-21T22:45:27.528Z,4.07
2018-07-21T22:47:55.021Z,6.33
2018-07-21T22:50:22.720Z,6.10
2018-07-21T22:52:50.387Z,6.23
2018-07-21T22:55:17.916Z,3.80
2018-07-21T22:57:45.476Z,4.20
2018-07-21T23:00:13.084Z,3.60
2018-07-21T23:02:41.267Z,3.47
2018-07-21T23:05:09.232Z,3.93
2018-07-21T23:07:36.879Z,4.63
2018-07-21T23:10:04.957Z,3.90
2018-07-21T23:12:32.545Z,3.80
2018-07-21T23:15:00.192Z,4.47
2018-07-21T23:17:27.728Z,5.13
2018-07-21T23:19:55.287Z,5.33
2018-07-21T23:22:22.793Z,5.47
2018-07-21T23:24:50.304Z,5.63
2018-07-21T23:27:17.851Z,5.50
2018-07-21T23:29:45.367Z,5.77
2018-07-21T23:32:12.888Z,5.33
2018-07-21T23:34:40.418Z,5.50
2018-07-21T23:37:07.913Z,5.67
2018-07-21T23:39:35.448Z,6.23
2018-07-21T23:42:02.937Z,4.60
2018-07-21T23:44:30.451Z,4.07
2018-07-21T23:46:57.950Z,4.83
2018-07-21T23:49:25.472Z,6.27
2018-07-21T23:51:52.984Z,5.87
2018-07-21T23:54:20.553Z,7.00
2018-07-21T23:56:48.048Z,5.03
2018-07-21T23:59:15.564Z,5.17
